Hauptseite
METAR-TAF:

METAR-TAF

Flughäfen :

Andravida, Griechenland

Breite: 37-55N, Länge: 021-17E, Höhe: 10 m

Beobachtung

Neuester Wetterbericht von vor 43 Minuten, um 15:50 UTC
Windstille
Temperatur 14°C
Luftfeuchtigkeit 77%
Luftdruck 1026 hPa
Sichtweite 10 km oder mehr
Leicht bewölkt in der Höhe von 2000 ft

METAR: LGAD 251550Z 00000KT 9999 FEW020 14/10 Q1026

Zeit: 18:33 (16:33 UTC)

Prognose

Neuester Wetterbericht von vor 2 Stunden und 33 Minuten, um 14:00 UTC
Gültige Prognose vom 25 um 15 UTC bis 25 um 24 UTC
Wind 3 kt aus unterschiedlichen Richtungen
Sichtweite 10 km oder mehr
Aufgelockert bewölkt in der Höhe von 2500 ft
Aufgelockert bewölkt in der Höhe von 8000 ft

TAF: LGAD 251400Z 2515/2524 VRB03KT 9999 SCT025 SCT080

Wetterbeobachtungen und Prognosen von mehr als 4000 Flughäfen (METAR und TAF Bericht).

Die verfügbaren Stationen werden durch gelbe und rote Markierungen auf der Karte dargestellt.

Führen Sie die Maus auf sie, um den Namen der Station zu sehen.

Darauf klicken, um die Beobachtung von Wetterbeobachtungen und Prognosen zu sehen.

Um die Karte zu ändern : klicken Sie auf den grünen Tasten mit einem schwarzen Kreuz Zum Vergrößern, auf den grünen Button mit einem Gedankenstrich zu verkleinern, oder auf die grünen Pfeile für benachbarte Karten.


METAR-TAF: